createdAt,value
2016-06-09T00:00:42.845Z,0
2016-06-09T00:01:42.833Z,0
2016-06-09T00:02:42.805Z,0
2016-06-09T00:03:42.823Z,0
2016-06-09T00:04:42.795Z,0
2016-06-09T00:05:42.783Z,0
2016-06-09T00:06:42.598Z,0
2016-06-09T00:07:42.757Z,0
2016-06-09T00:08:42.730Z,0
2016-06-09T00:09:42.716Z,0
2016-06-09T00:10:42.720Z,0
2016-06-09T00:11:42.707Z,0
2016-06-09T00:12:42.679Z,0
2016-06-09T00:13:42.682Z,0
2016-06-09T00:14:42.669Z,0
2016-06-09T00:15:42.641Z,0
2016-06-09T00:16:42.628Z,0
2016-06-09T00:17:42.460Z,0
2016-06-09T00:18:42.634Z,0
2016-06-09T00:19:42.591Z,0
2016-06-09T00:20:42.579Z,0
2016-06-09T00:21:42.566Z,0
2016-06-09T00:22:42.553Z,0
2016-06-09T00:23:42.557Z,0
2016-06-09T00:24:42.544Z,0
2016-06-09T00:25:42.515Z,0
2016-06-09T00:26:42.348Z,0
2016-06-09T00:27:42.491Z,0
2016-06-09T00:28:42.479Z,0
2016-06-09T00:29:42.449Z,0
2016-06-09T00:30:42.297Z,0
2016-06-09T00:31:42.425Z,0
2016-06-09T00:32:42.412Z,0
2016-06-09T00:33:42.603Z,0
2016-06-09T00:34:42.387Z,0
2016-06-09T00:35:42.376Z,0
2016-06-09T00:36:42.393Z,0
2016-06-09T00:37:42.349Z,0
2016-06-09T00:38:42.353Z,0
2016-06-09T00:39:42.324Z,0
2016-06-09T00:40:42.311Z,0
2016-06-09T00:41:42.315Z,0
2016-06-09T00:42:42.287Z,0
2016-06-09T00:43:42.274Z,0
2016-06-09T00:44:42.262Z,0
2016-06-09T00:45:42.248Z,0
2016-06-09T00:46:42.237Z,0
2016-06-09T00:47:42.224Z,0
2016-06-09T00:48:43.102Z,0
2016-06-09T00:49:42.199Z,0
2016-06-09T00:50:42.186Z,0
2016-06-09T00:51:42.175Z,0
2016-06-09T00:52:42.161Z,0
2016-06-09T00:53:42.149Z,0
2016-06-09T00:54:42.121Z,0
2016-06-09T00:55:42.139Z,0
2016-06-09T00:56:42.095Z,0
2016-06-09T00:57:42.099Z,0
2016-06-09T00:58:42.071Z,0
2016-06-09T00:59:41.902Z,0
2016-06-09T01:00:42.045Z,0
2016-06-09T01:01:42.033Z,0
2016-06-09T01:02:41.895Z,0
2016-06-09T01:03:42.601Z,0
2016-06-09T01:04:42.010Z,0
2016-06-09T01:05:41.999Z,0
2016-06-09T01:06:41.985Z,0
2016-06-09T01:07:41.816Z,0
2016-06-09T01:08:41.944Z,0
2016-06-09T01:09:41.933Z,0
2016-06-09T01:10:41.936Z,0
2016-06-09T01:11:41.892Z,0
2016-06-09T01:12:41.895Z,0
2016-06-09T01:13:41.882Z,0
2016-06-09T01:14:41.870Z,0
2016-06-09T01:15:41.857Z,0
2016-06-09T01:16:41.829Z,0
2016-06-09T01:17:41.832Z,0
2016-06-09T01:18:42.476Z,0
2016-06-09T01:19:41.478Z,0
2016-06-09T01:20:41.778Z,0
2016-06-09T01:21:41.782Z,0
2016-06-09T01:22:41.754Z,0
2016-06-09T01:23:41.756Z,0
2016-06-09T01:24:41.744Z,0
2016-06-09T01:25:41.716Z,0
2016-06-09T01:26:41.719Z,0
2016-06-09T01:27:41.690Z,0
2016-06-09T01:28:41.538Z,0
2016-06-09T01:29:41.667Z,0
2016-06-09T01:30:41.653Z,0
2016-06-09T01:31:41.640Z,0
2016-06-09T01:32:41.643Z,0
2016-06-09T01:33:42.600Z,0
2016-06-09T01:34:43.352Z,0
2016-06-09T01:35:41.590Z,0
2016-06-09T01:36:41.578Z,0
2016-06-09T01:37:41.549Z,0
2016-06-09T01:38:41.553Z,0
2016-06-09T01:39:41.525Z,0
2016-06-09T01:40:41.528Z,0
2016-06-09T01:41:41.499Z,0
2016-06-09T01:42:41.487Z,0
2016-06-09T01:43:41.474Z,0
2016-06-09T01:44:41.462Z,0
2016-06-09T01:45:41.294Z,0
2016-06-09T01:46:41.452Z,0
2016-06-09T01:47:41.268Z,0
2016-06-09T01:48:41.975Z,0
2016-06-09T01:49:41.306Z,0
2016-06-09T01:50:41.402Z,0
2016-06-09T01:51:41.374Z,0
2016-06-09T01:52:41.377Z,0
2016-06-09T01:53:41.333Z,0
2016-06-09T01:54:41.335Z,0
2016-06-09T01:55:41.308Z,0
2016-06-09T01:56:41.327Z,0
2016-06-09T01:57:41.298Z,0
2016-06-09T01:58:41.270Z,0
2016-06-09T01:59:41.259Z,0
2016-06-09T02:00:41.261Z,0
2016-06-09T02:01:41.232Z,0
2016-06-09T02:02:41.236Z,0
2016-06-09T02:03:43.161Z,0
2016-06-09T02:04:41.664Z,0
2016-06-09T02:05:41.058Z,0
2016-06-09T02:06:41.170Z,0
2016-06-09T02:07:41.158Z,0
2016-06-09T02:08:41.145Z,0
2016-06-09T02:09:41.132Z,0
2016-06-09T02:10:41.135Z,0
2016-06-09T02:11:41.091Z,0
2016-06-09T02:12:41.079Z,0
2016-06-09T02:13:41.083Z,0
2016-06-09T02:14:41.054Z,0
2016-06-09T02:15:41.042Z,0
2016-06-09T02:16:41.045Z,0
2016-06-09T02:17:41.017Z,0
2016-06-09T02:18:41.784Z,0
2016-06-09T02:19:41.460Z,0
2016-06-09T02:20:40.963Z,0
2016-06-09T02:21:40.981Z,0
2016-06-09T02:22:40.954Z,0
2016-06-09T02:23:40.925Z,0
2016-06-09T02:24:40.913Z,0
2016-06-09T02:25:40.900Z,0
2016-06-09T02:26:40.887Z,0
2016-06-09T02:27:40.875Z,0
2016-06-09T02:28:40.879Z,0
2016-06-09T02:29:40.851Z,0
2016-06-09T02:30:40.838Z,0
2016-06-09T02:31:40.841Z,0
2016-06-09T02:32:40.813Z,0
2016-06-09T02:33:40.816Z,0
2016-06-09T02:34:41.709Z,0
2016-06-09T02:35:40.759Z,0
2016-06-09T02:36:40.762Z,0
2016-06-09T02:37:40.750Z,0
2016-06-09T02:38:40.722Z,0
2016-06-09T02:39:40.724Z,0
2016-06-09T02:40:40.712Z,0
2016-06-09T02:41:40.684Z,0
2016-06-09T02:42:40.672Z,0
2016-06-09T02:43:40.658Z,0
2016-06-09T02:44:40.647Z,0
2016-06-09T02:45:40.633Z,0
2016-06-09T02:46:40.465Z,0
2016-06-09T02:47:40.609Z,0
2016-06-09T02:48:42.079Z,0
2016-06-09T02:49:40.349Z,0
2016-06-09T02:50:40.571Z,0
2016-06-09T02:51:40.543Z,0
2016-06-09T02:52:40.530Z,0
2016-06-09T02:53:40.517Z,0
2016-06-09T02:54:40.505Z,0
2016-06-09T02:55:40.493Z,0
2016-06-09T02:56:40.479Z,0
2016-06-09T02:57:40.451Z,0
2016-06-09T02:58:40.455Z,0
2016-06-09T02:59:40.443Z,0
2016-06-09T03:00:40.429Z,0
2016-06-09T03:01:40.402Z,0
2016-06-09T03:02:40.405Z,0
2016-06-09T03:03:40.095Z,0
2016-06-09T03:04:40.770Z,0
2016-06-09T03:05:40.352Z,0
2016-06-09T03:06:40.323Z,0
2016-06-09T03:07:40.326Z,0
2016-06-09T03:08:40.314Z,0
2016-06-09T03:09:40.302Z,0
2016-06-09T03:10:40.288Z,0
2016-06-09T03:11:40.261Z,0
2016-06-09T03:12:40.248Z,0
2016-06-09T03:13:40.236Z,0
2016-06-09T03:14:40.222Z,0
2016-06-09T03:15:40.210Z,0
2016-06-09T03:16:40.198Z,0
2016-06-09T03:17:40.185Z,0
2016-06-09T03:18:40.172Z,0
2016-06-09T03:19:40.363Z,0
2016-06-09T03:20:40.132Z,0
2016-06-09T03:21:40.135Z,0
2016-06-09T03:22:40.122Z,0
2016-06-09T03:23:40.109Z,0
2016-06-09T03:24:40.081Z,0
2016-06-09T03:25:40.069Z,0
2016-06-09T03:26:39.901Z,0
2016-06-09T03:27:40.059Z,0
2016-06-09T03:28:40.032Z,0
2016-06-09T03:29:39.847Z,0
2016-06-09T03:30:39.991Z,0
2016-06-09T03:31:39.837Z,0
2016-06-09T03:32:39.966Z,0
2016-06-09T03:33:39.812Z,0
2016-06-09T03:34:40.878Z,0
2016-06-09T03:35:39.960Z,0
2016-06-09T03:36:39.932Z,0
2016-06-09T03:37:39.918Z,0
2016-06-09T03:38:39.891Z,0
2016-06-09T03:39:39.894Z,0
2016-06-09T03:40:39.865Z,0
2016-06-09T03:41:39.867Z,0
2016-06-09T03:42:39.840Z,0
2016-06-09T03:43:39.828Z,0
2016-06-09T03:44:39.799Z,0
2016-06-09T03:45:39.787Z,0
2016-06-09T03:46:39.774Z,0
2016-06-09T03:47:39.746Z,0
2016-06-09T03:48:39.749Z,0
2016-06-09T03:49:39.909Z,0
2016-06-09T03:50:39.724Z,0
2016-06-09T03:51:39.711Z,0
2016-06-09T03:52:39.684Z,0
2016-06-09T03:53:39.687Z,0
2016-06-09T03:54:39.673Z,0
2016-06-09T03:55:39.646Z,0
2016-06-09T03:56:39.633Z,0
2016-06-09T03:57:39.621Z,0
2016-06-09T03:58:39.452Z,0
2016-06-09T03:59:39.595Z,0
2016-06-09T04:00:39.567Z,0
2016-06-09T04:01:39.586Z,0
2016-06-09T04:02:39.558Z,0
2016-06-09T04:03:39.530Z,0
2016-06-09T04:04:39.517Z,0
2016-06-09T04:05:39.521Z,0
2016-06-09T04:06:39.508Z,0
2016-06-09T04:07:39.495Z,0
2016-06-09T04:08:39.466Z,0
2016-06-09T04:09:39.439Z,0
2016-06-09T04:10:39.301Z,0
2016-06-09T04:11:39.117Z,0
2016-06-09T04:12:39.401Z,0
2016-06-09T04:13:39.388Z,0
2016-06-09T04:14:39.376Z,0
2016-06-09T04:15:39.364Z,0
2016-06-09T04:16:39.351Z,0
2016-06-09T04:17:39.182Z,0
2016-06-09T04:18:39.169Z,0
2016-06-09T04:19:39.782Z,0
2016-06-09T04:20:39.301Z,0
2016-06-09T04:21:39.272Z,0
2016-06-09T04:22:39.104Z,0
2016-06-09T04:23:39.091Z,0
2016-06-09T04:24:39.079Z,0
2016-06-09T04:25:39.222Z,0
2016-06-09T04:26:39.053Z,0
2016-06-09T04:27:39.197Z,0
2016-06-09T04:28:39.184Z,0
2016-06-09T04:29:39.173Z,0
2016-06-09T04:30:39.144Z,0
2016-06-09T04:31:39.132Z,0
2016-06-09T04:32:39.118Z,0
2016-06-09T04:33:39.107Z,0
2016-06-09T04:34:39.266Z,0
2016-06-09T04:35:38.924Z,0
2016-06-09T04:36:38.912Z,0
2016-06-09T04:37:38.900Z,0
2016-06-09T04:38:39.059Z,0
2016-06-09T04:39:39.015Z,0
2016-06-09T04:40:39.018Z,0
2016-06-09T04:41:38.990Z,0
2016-06-09T04:42:38.977Z,0
2016-06-09T04:43:38.966Z,0
2016-06-09T04:44:38.952Z,0
2016-06-09T04:45:38.939Z,0
2016-06-09T04:46:38.928Z,0
2016-06-09T04:47:38.775Z,0
2016-06-09T04:48:38.745Z,0
2016-06-09T04:49:39.390Z,0
2016-06-09T04:50:38.877Z,0
2016-06-09T04:51:38.849Z,0
2016-06-09T04:52:38.836Z,0
2016-06-09T04:53:38.839Z,0
2016-06-09T04:54:38.811Z,0
2016-06-09T04:55:38.799Z,0
2016-06-09T04:56:38.786Z,0
2016-06-09T04:57:38.774Z,0
2016-06-09T04:58:38.762Z,0
2016-06-09T04:59:38.748Z,0
2016-06-09T05:00:38.721Z,0
2016-06-09T05:01:38.724Z,0
2016-06-09T05:02:38.696Z,0
2016-06-09T05:03:38.699Z,0
2016-06-09T05:04:38.982Z,0
2016-06-09T05:05:38.658Z,0
2016-06-09T05:06:38.661Z,0
2016-06-09T05:07:38.632Z,0
2016-06-09T05:08:38.621Z,0
2016-06-09T05:09:38.623Z,0
2016-06-09T05:10:38.579Z,0
2016-06-09T05:11:38.583Z,0
2016-06-09T05:12:38.570Z,0
2016-06-09T05:13:38.541Z,0
2016-06-09T05:14:38.529Z,0
2016-06-09T05:15:38.517Z,5
2016-06-09T05:16:38.504Z,5
2016-06-09T05:17:38.492Z,5
2016-06-09T05:18:38.495Z,5
2016-06-09T05:19:38.716Z,5
2016-06-09T05:20:38.532Z,5
2016-06-09T05:21:38.441Z,5
2016-06-09T05:22:38.413Z,5
2016-06-09T05:23:38.400Z,5
2016-06-09T05:24:38.388Z,5
2016-06-09T05:25:38.376Z,10
2016-06-09T05:26:38.223Z,10
2016-06-09T05:27:38.023Z,10
2016-06-09T05:28:38.321Z,10
2016-06-09T05:29:38.310Z,10
2016-06-09T05:30:38.313Z,10
2016-06-09T05:31:38.285Z,10
2016-06-09T05:32:38.272Z,10
2016-06-09T05:33:38.259Z,15
2016-06-09T05:34:38.747Z,15
2016-06-09T05:35:38.735Z,15
2016-06-09T05:36:38.221Z,15
2016-06-09T05:37:38.209Z,15
2016-06-09T05:38:38.181Z,15
2016-06-09T05:39:38.169Z,20
2016-06-09T05:40:38.016Z,20
2016-06-09T05:41:38.144Z,20
2016-06-09T05:42:38.131Z,20
2016-06-09T05:43:38.117Z,20
2016-06-09T05:44:37.950Z,20
2016-06-09T05:45:38.077Z,25
2016-06-09T05:46:38.065Z,25
2016-06-09T05:47:38.052Z,25
2016-06-09T05:48:38.055Z,25
2016-06-09T05:49:37.980Z,25
2016-06-09T05:50:38.077Z,25
2016-06-09T05:51:38.017Z,25
2016-06-09T05:52:37.989Z,25
2016-06-09T05:53:37.977Z,25
2016-06-09T05:54:37.949Z,25
2016-06-09T05:55:37.952Z,30
2016-06-09T05:56:37.923Z,30
2016-06-09T05:57:37.927Z,30
2016-06-09T05:58:37.899Z,30
2016-06-09T05:59:37.886Z,30
2016-06-09T06:00:37.874Z,30
2016-06-09T06:01:37.878Z,30
2016-06-09T06:02:37.864Z,30
2016-06-09T06:03:37.680Z,30
2016-06-09T06:04:39.761Z,30
2016-06-09T06:05:37.810Z,30
2016-06-09T06:06:37.798Z,30
2016-06-09T06:07:37.770Z,30
2016-06-09T06:08:37.773Z,35
2016-06-09T06:09:37.745Z,35
2016-06-09T06:10:37.733Z,35
2016-06-09T06:11:37.564Z,35
2016-06-09T06:12:37.723Z,35
2016-06-09T06:13:37.695Z,35
2016-06-09T06:14:37.667Z,35
2016-06-09T06:15:37.654Z,35
2016-06-09T06:16:37.641Z,35
2016-06-09T06:17:37.629Z,35
2016-06-09T06:18:37.617Z,35
2016-06-09T06:19:37.698Z,40
2016-06-09T06:20:37.607Z,40
2016-06-09T06:21:37.579Z,40
2016-06-09T06:22:37.567Z,40
2016-06-09T06:23:38.648Z,40
2016-06-09T06:24:37.541Z,40
2016-06-09T06:25:37.513Z,40
2016-06-09T06:26:37.500Z,40
2016-06-09T06:27:37.488Z,40
2016-06-09T06:28:39.053Z,40
2016-06-09T06:29:37.464Z,40
2016-06-09T06:30:37.450Z,40
2016-06-09T06:31:37.281Z,40
2016-06-09T06:32:37.425Z,40
2016-06-09T06:33:39.085Z,40
2016-06-09T06:34:38.118Z,40
2016-06-09T06:35:37.388Z,40
2016-06-09T06:36:37.344Z,40
2016-06-09T06:37:37.331Z,40
2016-06-09T06:38:37.319Z,45
2016-06-09T06:39:37.150Z,45
2016-06-09T06:40:37.153Z,45
2016-06-09T06:41:37.281Z,45
2016-06-09T06:42:37.284Z,45
2016-06-09T06:43:39.632Z,45
2016-06-09T06:44:37.243Z,45
2016-06-09T06:45:37.230Z,45
2016-06-09T06:46:37.218Z,45
2016-06-09T06:47:37.206Z,45
2016-06-09T06:48:37.178Z,50
2016-06-09T06:49:37.196Z,50
2016-06-09T06:50:37.168Z,50
2016-06-09T06:51:37.139Z,50
2016-06-09T06:52:37.143Z,50
2016-06-09T06:53:37.708Z,50
2016-06-09T06:54:36.946Z,50
2016-06-09T06:55:37.089Z,50
2016-06-09T06:56:37.077Z,50
2016-06-09T06:57:37.064Z,50
2016-06-09T06:58:38.740Z,50
2016-06-09T06:59:37.040Z,50
2016-06-09T07:00:37.026Z,55
2016-06-09T07:01:36.842Z,55
2016-06-09T07:02:36.986Z,55
2016-06-09T07:03:36.974Z,55
2016-06-09T07:04:36.945Z,55
2016-06-09T07:05:37.433Z,55
2016-06-09T07:06:36.623Z,55
2016-06-09T07:07:36.923Z,60
2016-06-09T07:08:38.301Z,60
2016-06-09T07:09:36.726Z,60
2016-06-09T07:10:36.902Z,60
2016-06-09T07:11:36.857Z,60
2016-06-09T07:12:36.891Z,60
2016-06-09T07:13:39.707Z,60
2016-06-09T07:14:36.820Z,60
2016-06-09T07:15:36.807Z,60
2016-06-09T07:16:36.795Z,60
2016-06-09T07:17:36.781Z,65
2016-06-09T07:18:40.270Z,65
2016-06-09T07:19:36.757Z,65
2016-06-09T07:20:36.432Z,65
2016-06-09T07:21:36.716Z,65
2016-06-09T07:22:36.704Z,65
2016-06-09T07:23:38.410Z,65
2016-06-09T07:24:36.663Z,65
2016-06-09T07:25:36.667Z,70
2016-06-09T07:26:36.654Z,70
2016-06-09T07:27:36.626Z,70
2016-06-09T07:28:36.612Z,70
2016-06-09T07:29:36.601Z,70
2016-06-09T07:30:36.729Z,70
2016-06-09T07:31:36.607Z,70
2016-06-09T07:32:36.563Z,70
2016-06-09T07:33:36.549Z,70
2016-06-09T07:34:36.538Z,70
2016-06-09T07:35:36.384Z,70
2016-06-09T07:36:36.512Z,70
2016-06-09T07:37:36.500Z,70
2016-06-09T07:38:36.471Z,75
2016-06-09T07:39:36.303Z,75
2016-06-09T07:40:36.446Z,75
2016-06-09T07:41:36.465Z,75
2016-06-09T07:42:36.406Z,75
2016-06-09T07:43:38.393Z,75
2016-06-09T07:44:36.428Z,75
2016-06-09T07:45:36.243Z,75
2016-06-09T07:46:36.371Z,75
2016-06-09T07:47:36.359Z,75
2016-06-09T07:48:38.846Z,75
2016-06-09T07:49:36.334Z,75
2016-06-09T07:50:36.337Z,75
2016-06-09T07:51:36.309Z,75
2016-06-09T07:52:36.280Z,75
2016-06-09T07:53:37.986Z,75
2016-06-09T07:54:36.255Z,75
2016-06-09T07:55:36.243Z,75
2016-06-09T07:56:36.215Z,75
2016-06-09T07:57:36.202Z,75
2016-06-09T07:58:36.032Z,75
2016-06-09T07:59:36.177Z,80
2016-06-09T08:00:36.196Z,80
2016-06-09T08:01:36.167Z,80
2016-06-09T08:02:36.139Z,80
2016-06-09T08:03:36.689Z,80
2016-06-09T08:04:36.114Z,80
2016-06-09T08:05:36.134Z,80
2016-06-09T08:06:36.089Z,80
2016-06-09T08:07:36.077Z,85
2016-06-09T08:08:36.455Z,80
2016-06-09T08:09:35.895Z,80
2016-06-09T08:10:36.024Z,85
2016-06-09T08:11:35.995Z,85
2016-06-09T08:12:35.841Z,85
2016-06-09T08:13:38.189Z,85
2016-06-09T08:14:35.972Z,85
2016-06-09T08:15:35.960Z,85
2016-06-09T08:16:35.948Z,85
2016-06-09T08:17:35.935Z,85
2016-06-09T08:18:36.219Z,85
2016-06-09T08:19:35.911Z,85
2016-06-09T08:20:35.804Z,90
2016-06-09T08:21:35.886Z,90
2016-06-09T08:22:35.716Z,90
2016-06-09T08:23:35.860Z,90
2016-06-09T08:24:35.850Z,90
2016-06-09T08:25:35.864Z,90
2016-06-09T08:26:35.910Z,90
2016-06-09T08:27:35.783Z,90
2016-06-09T08:28:35.970Z,90
2016-06-09T08:29:35.983Z,90
2016-06-09T08:30:35.985Z,90
2016-06-09T08:31:35.989Z,90
2016-06-09T08:32:36.007Z,90
2016-06-09T08:33:35.994Z,90
2016-06-09T08:34:35.996Z,90
2016-06-09T08:35:36.177Z,90
2016-06-09T08:36:35.842Z,90
2016-06-09T08:37:35.991Z,95
2016-06-09T08:38:35.952Z,90
2016-06-09T08:39:35.804Z,90
2016-06-09T08:40:35.949Z,95
2016-06-09T08:41:35.940Z,95
2016-06-09T08:42:35.773Z,100
2016-06-09T08:43:35.746Z,100
2016-06-09T08:44:35.907Z,100
2016-06-09T08:45:36.067Z,105
2016-06-09T08:46:35.883Z,105
2016-06-09T08:47:35.856Z,105
2016-06-09T08:48:36.016Z,110
2016-06-09T08:49:35.833Z,110
2016-06-09T08:50:35.977Z,110
2016-06-09T08:51:35.808Z,110
2016-06-09T08:52:35.796Z,115
2016-06-09T08:53:36.894Z,115
2016-06-09T08:54:35.616Z,115
2016-06-09T08:55:35.588Z,115
2016-06-09T08:56:35.747Z,115
2016-06-09T08:57:35.719Z,120
2016-06-09T08:58:37.910Z,120
2016-06-09T08:59:35.709Z,120
2016-06-09T09:00:35.693Z,120
2016-06-09T09:01:35.680Z,125
2016-06-09T09:02:35.512Z,125
2016-06-09T09:03:37.752Z,125
2016-06-09T09:04:35.674Z,125
2016-06-09T09:05:36.165Z,125
2016-06-09T09:06:35.603Z,125
2016-06-09T09:07:35.590Z,120
2016-06-09T09:08:36.830Z,115
2016-06-09T09:09:35.580Z,120
2016-06-09T09:10:35.552Z,115
2016-06-09T09:11:35.556Z,115
2016-06-09T09:12:35.527Z,110
2016-06-09T09:13:37.440Z,115
2016-06-09T09:14:35.518Z,120
2016-06-09T09:15:35.365Z,115
2016-06-09T09:16:35.508Z,115
2016-06-09T09:17:35.496Z,115
2016-06-09T09:18:36.280Z,115
2016-06-09T09:19:35.440Z,110
2016-06-09T09:20:35.849Z,115
2016-06-09T09:21:35.539Z,115
2016-06-09T09:22:35.417Z,115
2016-06-09T09:23:35.405Z,115
2016-06-09T09:24:35.080Z,115
2016-06-09T09:25:35.364Z,120
2016-06-09T09:26:35.351Z,120
2016-06-09T09:27:35.339Z,120
2016-06-09T09:28:35.343Z,125
2016-06-09T09:29:35.313Z,125
2016-06-09T09:30:35.316Z,125
2016-06-09T09:31:35.289Z,125
2016-06-09T09:32:34.979Z,125
2016-06-09T09:33:35.263Z,130
2016-06-09T09:34:35.267Z,130
2016-06-09T09:35:35.551Z,135
2016-06-09T09:36:35.257Z,140
2016-06-09T09:37:35.229Z,140
2016-06-09T09:38:35.217Z,145
2016-06-09T09:39:35.204Z,145
2016-06-09T09:40:36.238Z,140
2016-06-09T09:41:36.194Z,140
2016-06-09T09:42:35.151Z,140
2016-06-09T09:43:35.153Z,140
2016-06-09T09:44:35.157Z,140
2016-06-09T09:45:35.129Z,145
2016-06-09T09:46:35.132Z,145
2016-06-09T09:47:34.947Z,145
2016-06-09T09:48:35.090Z,150
2016-06-09T09:49:35.078Z,150
2016-06-09T09:50:35.519Z,150
2016-06-09T09:51:35.085Z,160
2016-06-09T09:52:35.042Z,155
2016-06-09T09:53:35.090Z,160
2016-06-09T09:54:35.062Z,165
2016-06-09T09:55:35.019Z,165
2016-06-09T09:56:34.991Z,165
2016-06-09T09:57:34.977Z,175
2016-06-09T09:58:34.966Z,170
2016-06-09T09:59:35.015Z,170
2016-06-09T10:00:34.800Z,165
2016-06-09T10:01:34.944Z,175
2016-06-09T10:02:34.931Z,165
2016-06-09T10:03:34.746Z,165
2016-06-09T10:04:34.906Z,170
2016-06-09T10:05:35.112Z,170
2016-06-09T10:06:34.880Z,185
2016-06-09T10:07:34.868Z,185
2016-06-09T10:08:34.855Z,180
2016-06-09T10:09:34.687Z,185
2016-06-09T10:10:34.814Z,185
2016-06-09T10:11:34.818Z,190
2016-06-09T10:12:34.806Z,195
2016-06-09T10:13:34.809Z,190
2016-06-09T10:14:34.796Z,190
2016-06-09T10:15:34.768Z,195
2016-06-09T10:16:34.849Z,200
2016-06-09T10:17:34.602Z,200
2016-06-09T10:18:34.730Z,200
2016-06-09T10:19:34.733Z,205
2016-06-09T10:20:35.908Z,210
2016-06-09T10:21:35.584Z,215
2016-06-09T10:22:34.789Z,215
2016-06-09T10:23:34.683Z,210
2016-06-09T10:24:34.671Z,210
2016-06-09T10:25:34.688Z,215
2016-06-09T10:26:34.660Z,210
2016-06-09T10:27:34.649Z,205
2016-06-09T10:28:34.698Z,215
2016-06-09T10:29:34.623Z,220
2016-06-09T10:30:34.595Z,225
2016-06-09T10:31:34.583Z,220
2016-06-09T10:32:34.585Z,215
2016-06-09T10:33:34.573Z,215
2016-06-09T10:34:34.576Z,210
2016-06-09T10:35:35.438Z,205
2016-06-09T10:36:34.489Z,200
2016-06-09T10:37:34.538Z,195
2016-06-09T10:38:34.603Z,190
2016-06-09T10:39:34.497Z,195
2016-06-09T10:40:34.485Z,205
2016-06-09T10:41:34.567Z,210
2016-06-09T10:42:34.460Z,210
2016-06-09T10:43:34.510Z,215
2016-06-09T10:44:34.497Z,215
2016-06-09T10:45:34.454Z,220
2016-06-09T10:46:34.442Z,220
2016-06-09T10:47:34.428Z,220
2016-06-09T10:48:34.431Z,225
2016-06-09T10:49:34.404Z,230
2016-06-09T10:50:34.859Z,235
2016-06-09T10:51:34.926Z,235
2016-06-09T10:52:34.069Z,225
2016-06-09T10:53:34.369Z,230
2016-06-09T10:54:34.622Z,240
2016-06-09T10:55:34.327Z,235
2016-06-09T10:56:34.347Z,245
2016-06-09T10:57:34.084Z,245
2016-06-09T10:58:34.306Z,245
2016-06-09T10:59:34.293Z,240
2016-06-09T11:00:34.297Z,245
2016-06-09T11:01:34.378Z,245
2016-06-09T11:02:34.272Z,255
2016-06-09T11:03:34.259Z,250
2016-06-09T11:04:34.247Z,255
2016-06-09T11:05:34.141Z,260
2016-06-09T11:06:34.252Z,265
2016-06-09T11:07:34.225Z,255
2016-06-09T11:08:34.071Z,250
2016-06-09T11:09:34.231Z,255
2016-06-09T11:10:34.202Z,255
2016-06-09T11:11:34.190Z,250
2016-06-09T11:12:34.037Z,260
2016-06-09T11:13:34.180Z,260
2016-06-09T11:14:34.152Z,255
2016-06-09T11:15:34.202Z,250
2016-06-09T11:16:34.017Z,255
2016-06-09T11:17:34.130Z,255
2016-06-09T11:18:33.961Z,260
2016-06-09T11:19:34.121Z,255
2016-06-09T11:20:34.092Z,265
2016-06-09T11:21:36.315Z,260
2016-06-09T11:22:34.068Z,255
2016-06-09T11:23:34.461Z,270
2016-06-09T11:24:34.074Z,265
2016-06-09T11:25:34.045Z,270
2016-06-09T11:26:34.048Z,265
2016-06-09T11:27:34.083Z,275
2016-06-09T11:28:34.024Z,260
2016-06-09T11:29:33.995Z,285
2016-06-09T11:30:33.999Z,345
2016-06-09T11:31:33.876Z,710
2016-06-09T11:32:34.004Z,1350
2016-06-09T11:33:33.977Z,1900
2016-06-09T11:34:33.964Z,1955
2016-06-09T11:35:33.966Z,1995
2016-06-09T11:36:34.595Z,1915
2016-06-09T11:37:33.957Z,1870
2016-06-09T11:38:33.929Z,1980
2016-06-09T11:39:33.807Z,2025
2016-06-09T11:40:33.951Z,1900
2016-06-09T11:41:33.923Z,1775
2016-06-09T11:42:33.910Z,1935
2016-06-09T11:43:33.929Z,1925
2016-06-09T11:44:33.917Z,1820
2016-06-09T11:45:33.920Z,1920
2016-06-09T11:46:33.907Z,2085
2016-06-09T11:47:33.895Z,2230
2016-06-09T11:48:33.741Z,2240
2016-06-09T11:49:33.743Z,2105
2016-06-09T11:50:33.732Z,1775
2016-06-09T11:51:34.453Z,1985
2016-06-09T11:52:33.894Z,1985
2016-06-09T11:53:33.928Z,1785
2016-06-09T11:54:33.901Z,1865
2016-06-09T11:55:33.872Z,1855
2016-06-09T11:56:33.876Z,2015
2016-06-09T11:57:33.878Z,2055
2016-06-09T11:58:33.882Z,1805
2016-06-09T11:59:33.885Z,1865
2016-06-09T12:00:33.887Z,1860
2016-06-09T12:01:33.891Z,1890
2016-06-09T12:02:33.878Z,1965
2016-06-09T12:03:33.725Z,1945
2016-06-09T12:04:33.868Z,1390
2016-06-09T12:05:33.715Z,1415
2016-06-09T12:06:34.609Z,1280
2016-06-09T12:07:33.893Z,1375
2016-06-09T12:08:33.849Z,1850
2016-06-09T12:09:33.883Z,1820
2016-06-09T12:10:33.683Z,1985
2016-06-09T12:11:33.687Z,1885
2016-06-09T12:12:33.877Z,1680
2016-06-09T12:13:33.849Z,1500
2016-06-09T12:14:33.852Z,1345
2016-06-09T12:15:33.840Z,1135
2016-06-09T12:16:33.843Z,830
2016-06-09T12:17:33.862Z,655
2016-06-09T12:18:33.849Z,605
2016-06-09T12:19:33.868Z,575
2016-06-09T12:20:33.839Z,575
2016-06-09T12:21:34.139Z,605
2016-06-09T12:22:33.986Z,615
2016-06-09T12:23:33.833Z,615
2016-06-09T12:24:33.837Z,590
2016-06-09T12:25:33.839Z,560
2016-06-09T12:26:33.843Z,555
2016-06-09T12:27:33.674Z,555
2016-06-09T12:28:33.816Z,545
2016-06-09T12:29:33.680Z,545
2016-06-09T12:30:33.839Z,545
2016-06-09T12:31:33.842Z,550
2016-06-09T12:32:33.829Z,550
2016-06-09T12:33:33.817Z,550
2016-06-09T12:34:33.507Z,550
2016-06-09T12:35:33.807Z,540
2016-06-09T12:36:34.327Z,555
2016-06-09T12:37:34.111Z,535
2016-06-09T12:38:34.020Z,525
2016-06-09T12:39:33.819Z,510
2016-06-09T12:40:33.822Z,505
2016-06-09T12:41:33.795Z,545
2016-06-09T12:42:33.798Z,560
2016-06-09T12:43:33.879Z,560
2016-06-09T12:44:33.788Z,570
2016-06-09T12:45:33.791Z,565
2016-06-09T12:46:33.872Z,575
2016-06-09T12:47:33.782Z,575
2016-06-09T12:48:33.769Z,590
2016-06-09T12:49:33.600Z,590
2016-06-09T12:50:33.760Z,580
2016-06-09T12:51:33.623Z,560
2016-06-09T12:52:33.750Z,570
2016-06-09T12:53:33.768Z,550
2016-06-09T12:54:33.740Z,525
2016-06-09T12:55:33.744Z,545
2016-06-09T12:56:33.590Z,560
2016-06-09T12:57:33.750Z,570
2016-06-09T12:58:33.722Z,590
2016-06-09T12:59:33.756Z,600
2016-06-09T13:00:33.572Z,615
2016-06-09T13:01:33.747Z,660
2016-06-09T13:02:33.734Z,665
2016-06-09T13:03:33.768Z,745
2016-06-09T13:04:33.724Z,975
2016-06-09T13:05:33.713Z,1345
2016-06-09T13:06:33.747Z,1620
2016-06-09T13:07:33.719Z,1680
2016-06-09T13:08:33.690Z,1795
2016-06-09T13:09:33.724Z,1865
2016-06-09T13:10:33.696Z,1815
2016-06-09T13:11:33.699Z,1590
2016-06-09T13:12:33.515Z,1590
2016-06-09T13:13:33.690Z,1660
2016-06-09T13:14:33.708Z,1675
2016-06-09T13:15:33.525Z,1780
2016-06-09T13:16:33.668Z,1620
2016-06-09T13:17:33.671Z,1745
2016-06-09T13:18:33.518Z,1860
2016-06-09T13:19:33.521Z,1935
2016-06-09T13:20:33.681Z,1880
2016-06-09T13:21:33.808Z,2025
2016-06-09T13:22:34.202Z,2135
2016-06-09T13:23:33.673Z,2125
2016-06-09T13:24:33.645Z,2045
2016-06-09T13:25:33.852Z,2125
2016-06-09T13:26:33.652Z,2270
2016-06-09T13:27:33.655Z,2340
2016-06-09T13:28:33.705Z,2285
2016-06-09T13:29:33.693Z,1980
2016-06-09T13:30:33.524Z,2045
2016-06-09T13:31:33.495Z,2030
2016-06-09T13:32:33.654Z,1905
2016-06-09T13:33:33.641Z,2110
2016-06-09T13:34:33.645Z,2150
2016-06-09T13:35:33.648Z,1910
2016-06-09T13:36:34.026Z,1905
2016-06-09T13:37:34.951Z,1720
2016-06-09T13:38:33.642Z,1715
2016-06-09T13:39:33.645Z,1925
2016-06-09T13:40:33.632Z,2060
2016-06-09T13:41:33.635Z,1800
2016-06-09T13:42:33.638Z,1955
2016-06-09T13:43:33.485Z,2220
2016-06-09T13:44:33.660Z,2180
2016-06-09T13:45:33.647Z,2215
2016-06-09T13:46:33.495Z,2375
2016-06-09T13:47:33.654Z,2380
2016-06-09T13:48:33.657Z,2490
2016-06-09T13:49:33.660Z,2445
2016-06-09T13:50:33.631Z,2080
2016-06-09T13:51:33.571Z,2325
2016-06-09T13:52:33.388Z,2325
2016-06-09T13:53:33.657Z,2375
2016-06-09T13:54:33.628Z,2455
2016-06-09T13:55:33.631Z,2380
2016-06-09T13:56:33.634Z,2375
2016-06-09T13:57:33.623Z,2190
2016-06-09T13:58:33.626Z,2250
2016-06-09T13:59:33.644Z,2395
2016-06-09T14:00:33.475Z,2315
2016-06-09T14:01:33.634Z,2260
2016-06-09T14:02:33.465Z,2150
2016-06-09T14:03:33.624Z,2205
2016-06-09T14:04:33.612Z,2455
2016-06-09T14:05:33.615Z,2480
2016-06-09T14:06:34.165Z,2290
2016-06-09T14:07:33.700Z,2260
2016-06-09T14:08:33.656Z,2440
2016-06-09T14:09:33.643Z,2390
2016-06-09T14:10:33.647Z,2460
2016-06-09T14:11:33.650Z,2475